sensor_id;sensor_type;location;lat;lon;timestamp;P1;durP1;ratioP1;P2;durP2;ratioP2
6414;SDS011;3240;48.790;9.210;2022-12-18T00:00:11;82.17;;;28.30;;
6414;SDS011;3240;48.790;9.210;2022-12-18T00:02:39;110.30;;;43.87;;
6414;SDS011;3240;48.790;9.210;2022-12-18T00:05:08;103.97;;;35.20;;
6414;SDS011;3240;48.790;9.210;2022-12-18T00:07:36;97.13;;;32.97;;
6414;SDS011;3240;48.790;9.210;2022-12-18T00:10:05;93.17;;;31.10;;
6414;SDS011;3240;48.790;9.210;2022-12-18T00:12:33;93.70;;;32.50;;
6414;SDS011;3240;48.790;9.210;2022-12-18T00:15:02;90.80;;;34.63;;
6414;SDS011;3240;48.790;9.210;2022-12-18T00:17:30;84.53;;;28.57;;
6414;SDS011;3240;48.790;9.210;2022-12-18T00:19:58;91.30;;;32.80;;
6414;SDS011;3240;48.790;9.210;2022-12-18T00:22:27;96.87;;;31.07;;
6414;SDS011;3240;48.790;9.210;2022-12-18T00:24:55;93.10;;;33.10;;
6414;SDS011;3240;48.790;9.210;2022-12-18T00:27:23;92.77;;;32.40;;
6414;SDS011;3240;48.790;9.210;2022-12-18T00:29:52;94.10;;;32.47;;
6414;SDS011;3240;48.790;9.210;2022-12-18T00:32:20;88.97;;;31.33;;
6414;SDS011;3240;48.790;9.210;2022-12-18T00:34:48;100.03;;;32.87;;
6414;SDS011;3240;48.790;9.210;2022-12-18T00:37:17;97.67;;;30.90;;
6414;SDS011;3240;48.790;9.210;2022-12-18T00:39:45;102.07;;;31.60;;
6414;SDS011;3240;48.790;9.210;2022-12-18T00:42:13;103.33;;;35.77;;
6414;SDS011;3240;48.790;9.210;2022-12-18T00:44:48;114.80;;;33.10;;
6414;SDS011;3240;48.790;9.210;2022-12-18T00:47:16;108.17;;;32.80;;
6414;SDS011;3240;48.790;9.210;2022-12-18T00:49:44;93.87;;;32.37;;
6414;SDS011;3240;48.790;9.210;2022-12-18T00:52:13;96.30;;;30.57;;
6414;SDS011;3240;48.790;9.210;2022-12-18T00:54:41;92.37;;;30.00;;
6414;SDS011;3240;48.790;9.210;2022-12-18T00:57:09;120.47;;;34.70;;
6414;SDS011;3240;48.790;9.210;2022-12-18T00:59:38;99.50;;;33.07;;
6414;SDS011;3240;48.790;9.210;2022-12-18T01:02:06;91.33;;;29.97;;
6414;SDS011;3240;48.790;9.210;2022-12-18T01:04:34;98.83;;;32.87;;
6414;SDS011;3240;48.790;9.210;2022-12-18T01:07:03;111.47;;;34.10;;
6414;SDS011;3240;48.790;9.210;2022-12-18T01:09:31;84.50;;;30.60;;
6414;SDS011;3240;48.790;9.210;2022-12-18T01:11:59;79.50;;;29.37;;
6414;SDS011;3240;48.790;9.210;2022-12-18T01:14:28;91.13;;;30.37;;
6414;SDS011;3240;48.790;9.210;2022-12-18T01:16:56;98.47;;;31.53;;
6414;SDS011;3240;48.790;9.210;2022-12-18T01:19:24;105.07;;;30.23;;
6414;SDS011;3240;48.790;9.210;2022-12-18T01:21:53;98.20;;;32.20;;
6414;SDS011;3240;48.790;9.210;2022-12-18T01:24:21;81.17;;;28.10;;
6414;SDS011;3240;48.790;9.210;2022-12-18T01:26:49;78.13;;;28.73;;
6414;SDS011;3240;48.790;9.210;2022-12-18T01:29:18;94.53;;;31.63;;
6414;SDS011;3240;48.790;9.210;2022-12-18T01:31:46;85.77;;;27.50;;
6414;SDS011;3240;48.790;9.210;2022-12-18T01:34:14;80.50;;;27.67;;
6414;SDS011;3240;48.790;9.210;2022-12-18T01:36:43;87.63;;;30.73;;
6414;SDS011;3240;48.790;9.210;2022-12-18T01:39:12;87.63;;;28.33;;
6414;SDS011;3240;48.790;9.210;2022-12-18T01:41:39;90.67;;;29.80;;
6414;SDS011;3240;48.790;9.210;2022-12-18T01:46:48;78.70;;;26.93;;
6414;SDS011;3240;48.790;9.210;2022-12-18T01:49:16;90.53;;;29.03;;
6414;SDS011;3240;48.790;9.210;2022-12-18T01:51:44;85.97;;;26.00;;
6414;SDS011;3240;48.790;9.210;2022-12-18T01:54:13;79.77;;;26.60;;
6414;SDS011;3240;48.790;9.210;2022-12-18T01:56:41;85.77;;;27.20;;
6414;SDS011;3240;48.790;9.210;2022-12-18T01:59:09;87.50;;;34.10;;
6414;SDS011;3240;48.790;9.210;2022-12-18T02:01:38;93.63;;;29.53;;
6414;SDS011;3240;48.790;9.210;2022-12-18T02:04:17;85.43;;;28.00;;
6414;SDS011;3240;48.790;9.210;2022-12-18T02:06:40;89.07;;;26.00;;
6414;SDS011;3240;48.790;9.210;2022-12-18T02:09:11;84.67;;;29.67;;
6414;SDS011;3240;48.790;9.210;2022-12-18T02:11:40;89.23;;;27.80;;
6414;SDS011;3240;48.790;9.210;2022-12-18T02:14:12;80.13;;;25.00;;
6414;SDS011;3240;48.790;9.210;2022-12-18T02:16:51;84.27;;;27.77;;
6414;SDS011;3240;48.790;9.210;2022-12-18T02:22:14;77.87;;;26.30;;
6414;SDS011;3240;48.790;9.210;2022-12-18T02:24:41;74.20;;;25.17;;
6414;SDS011;3240;48.790;9.210;2022-12-18T02:27:06;71.80;;;26.60;;
6414;SDS011;3240;48.790;9.210;2022-12-18T02:29:36;89.03;;;26.70;;
6414;SDS011;3240;48.790;9.210;2022-12-18T02:32:03;66.47;;;26.07;;
6414;SDS011;3240;48.790;9.210;2022-12-18T02:34:31;97.67;;;28.57;;
6414;SDS011;3240;48.790;9.210;2022-12-18T02:36:59;72.70;;;27.17;;
6414;SDS011;3240;48.790;9.210;2022-12-18T02:39:27;74.40;;;24.57;;
6414;SDS011;3240;48.790;9.210;2022-12-18T02:41:56;67.70;;;25.20;;
6414;SDS011;3240;48.790;9.210;2022-12-18T02:44:24;89.33;;;26.40;;
6414;SDS011;3240;48.790;9.210;2022-12-18T02:46:53;79.27;;;27.43;;
6414;SDS011;3240;48.790;9.210;2022-12-18T02:49:41;67.97;;;27.10;;
6414;SDS011;3240;48.790;9.210;2022-12-18T02:52:13;76.93;;;26.27;;
6414;SDS011;3240;48.790;9.210;2022-12-18T02:54:44;72.63;;;24.83;;
6414;SDS011;3240;48.790;9.210;2022-12-18T02:57:12;70.47;;;27.20;;
6414;SDS011;3240;48.790;9.210;2022-12-18T02:59:39;74.77;;;25.30;;
6414;SDS011;3240;48.790;9.210;2022-12-18T03:02:09;72.43;;;26.37;;
6414;SDS011;3240;48.790;9.210;2022-12-18T03:04:36;65.23;;;25.07;;
6414;SDS011;3240;48.790;9.210;2022-12-18T03:07:02;64.10;;;25.77;;
6414;SDS011;3240;48.790;9.210;2022-12-18T03:09:32;74.23;;;25.77;;
6414;SDS011;3240;48.790;9.210;2022-12-18T03:12:03;73.93;;;25.10;;
6414;SDS011;3240;48.790;9.210;2022-12-18T03:14:34;76.57;;;23.43;;
6414;SDS011;3240;48.790;9.210;2022-12-18T03:17:04;77.03;;;25.87;;
6414;SDS011;3240;48.790;9.210;2022-12-18T03:19:31;77.40;;;25.20;;
6414;SDS011;3240;48.790;9.210;2022-12-18T03:22:00;63.67;;;24.93;;
6414;SDS011;3240;48.790;9.210;2022-12-18T03:24:27;70.20;;;23.10;;
6414;SDS011;3240;48.790;9.210;2022-12-18T03:26:57;71.23;;;24.60;;
6414;SDS011;3240;48.790;9.210;2022-12-18T03:29:25;69.13;;;24.83;;
6414;SDS011;3240;48.790;9.210;2022-12-18T03:31:54;69.77;;;26.30;;
6414;SDS011;3240;48.790;9.210;2022-12-18T03:34:24;74.10;;;24.53;;
6414;SDS011;3240;48.790;9.210;2022-12-18T03:36:51;62.77;;;24.30;;
6414;SDS011;3240;48.790;9.210;2022-12-18T03:39:20;68.33;;;23.60;;
6414;SDS011;3240;48.790;9.210;2022-12-18T03:41:51;62.90;;;23.43;;
6414;SDS011;3240;48.790;9.210;2022-12-18T03:44:26;64.17;;;24.47;;
6414;SDS011;3240;48.790;9.210;2022-12-18T03:46:54;63.90;;;22.23;;
6414;SDS011;3240;48.790;9.210;2022-12-18T03:49:23;64.57;;;23.33;;
6414;SDS011;3240;48.790;9.210;2022-12-18T03:51:50;61.23;;;23.33;;
6414;SDS011;3240;48.790;9.210;2022-12-18T03:54:17;62.70;;;22.90;;
6414;SDS011;3240;48.790;9.210;2022-12-18T03:56:47;66.00;;;24.37;;
6414;SDS011;3240;48.790;9.210;2022-12-18T03:59:14;70.83;;;23.23;;
6414;SDS011;3240;48.790;9.210;2022-12-18T04:01:43;65.80;;;22.30;;
6414;SDS011;3240;48.790;9.210;2022-12-18T04:04:10;64.37;;;23.47;;
6414;SDS011;3240;48.790;9.210;2022-12-18T04:06:39;62.53;;;21.50;;
6414;SDS011;3240;48.790;9.210;2022-12-18T04:09:07;63.87;;;21.37;;
6414;SDS011;3240;48.790;9.210;2022-12-18T04:11:35;65.73;;;22.83;;
6414;SDS011;3240;48.790;9.210;2022-12-18T04:14:04;62.97;;;22.07;;
6414;SDS011;3240;48.790;9.210;2022-12-18T04:16:32;57.40;;;21.47;;
6414;SDS011;3240;48.790;9.210;2022-12-18T04:19:00;64.10;;;24.00;;
6414;SDS011;3240;48.790;9.210;2022-12-18T04:21:29;65.10;;;22.80;;
6414;SDS011;3240;48.790;9.210;2022-12-18T04:23:57;51.03;;;20.90;;
6414;SDS011;3240;48.790;9.210;2022-12-18T04:26:25;58.97;;;22.17;;
6414;SDS011;3240;48.790;9.210;2022-12-18T04:28:54;57.43;;;21.90;;
6414;SDS011;3240;48.790;9.210;2022-12-18T04:31:22;59.80;;;21.50;;
6414;SDS011;3240;48.790;9.210;2022-12-18T04:33:50;55.77;;;21.00;;
6414;SDS011;3240;48.790;9.210;2022-12-18T04:36:19;59.83;;;22.03;;
6414;SDS011;3240;48.790;9.210;2022-12-18T04:38:47;59.37;;;21.00;;
6414;SDS011;3240;48.790;9.210;2022-12-18T04:41:15;55.53;;;22.30;;
6414;SDS011;3240;48.790;9.210;2022-12-18T04:43:44;65.90;;;23.60;;
6414;SDS011;3240;48.790;9.210;2022-12-18T04:46:12;55.67;;;21.73;;
6414;SDS011;3240;48.790;9.210;2022-12-18T04:48:40;58.60;;;25.47;;
6414;SDS011;3240;48.790;9.210;2022-12-18T04:51:09;50.20;;;19.93;;
6414;SDS011;3240;48.790;9.210;2022-12-18T04:53:37;51.10;;;21.00;;
6414;SDS011;3240;48.790;9.210;2022-12-18T04:56:07;56.50;;;18.67;;
6414;SDS011;3240;48.790;9.210;2022-12-18T04:58:35;49.73;;;18.50;;
6414;SDS011;3240;48.790;9.210;2022-12-18T05:01:03;54.70;;;21.27;;
6414;SDS011;3240;48.790;9.210;2022-12-18T05:03:31;65.47;;;21.07;;
6414;SDS011;3240;48.790;9.210;2022-12-18T05:05:59;49.80;;;19.30;;
6414;SDS011;3240;48.790;9.210;2022-12-18T05:08:28;55.53;;;25.10;;
6414;SDS011;3240;48.790;9.210;2022-12-18T05:10:59;55.33;;;23.07;;
6414;SDS011;3240;48.790;9.210;2022-12-18T05:13:28;51.33;;;21.53;;
6414;SDS011;3240;48.790;9.210;2022-12-18T05:15:56;51.00;;;20.47;;
6414;SDS011;3240;48.790;9.210;2022-12-18T05:18:24;55.33;;;21.10;;
6414;SDS011;3240;48.790;9.210;2022-12-18T05:20:53;53.33;;;20.40;;
6414;SDS011;3240;48.790;9.210;2022-12-18T05:23:21;59.43;;;20.97;;
6414;SDS011;3240;48.790;9.210;2022-12-18T05:25:51;54.33;;;19.90;;
6414;SDS011;3240;48.790;9.210;2022-12-18T05:28:18;53.50;;;21.63;;
6414;SDS011;3240;48.790;9.210;2022-12-18T05:30:49;63.17;;;22.40;;
6414;SDS011;3240;48.790;9.210;2022-12-18T05:33:19;53.00;;;19.83;;
6414;SDS011;3240;48.790;9.210;2022-12-18T05:35:51;57.33;;;21.70;;
6414;SDS011;3240;48.790;9.210;2022-12-18T05:38:20;51.63;;;20.10;;
6414;SDS011;3240;48.790;9.210;2022-12-18T05:40:49;63.80;;;22.87;;
6414;SDS011;3240;48.790;9.210;2022-12-18T05:43:16;61.27;;;20.20;;
6414;SDS011;3240;48.790;9.210;2022-12-18T05:45:45;62.50;;;22.77;;
6414;SDS011;3240;48.790;9.210;2022-12-18T05:48:13;47.03;;;19.17;;
6414;SDS011;3240;48.790;9.210;2022-12-18T05:50:42;56.47;;;19.03;;
6414;SDS011;3240;48.790;9.210;2022-12-18T05:53:10;56.80;;;21.40;;
6414;SDS011;3240;48.790;9.210;2022-12-18T05:55:39;50.33;;;19.50;;
6414;SDS011;3240;48.790;9.210;2022-12-18T05:58:07;48.07;;;19.53;;
6414;SDS011;3240;48.790;9.210;2022-12-18T06:00:36;52.50;;;20.47;;
6414;SDS011;3240;48.790;9.210;2022-12-18T06:03:03;49.73;;;20.17;;
6414;SDS011;3240;48.790;9.210;2022-12-18T06:05:35;51.27;;;20.50;;
6414;SDS011;3240;48.790;9.210;2022-12-18T06:08:02;59.37;;;20.43;;
6414;SDS011;3240;48.790;9.210;2022-12-18T06:10:31;51.27;;;18.03;;
6414;SDS011;3240;48.790;9.210;2022-12-18T06:12:59;51.20;;;19.63;;
6414;SDS011;3240;48.790;9.210;2022-12-18T06:15:27;60.97;;;19.43;;
6414;SDS011;3240;48.790;9.210;2022-12-18T06:17:56;56.50;;;20.00;;
6414;SDS011;3240;48.790;9.210;2022-12-18T06:20:24;45.27;;;19.07;;
6414;SDS011;3240;48.790;9.210;2022-12-18T06:22:52;43.57;;;17.97;;
6414;SDS011;3240;48.790;9.210;2022-12-18T06:25:21;46.90;;;17.50;;
6414;SDS011;3240;48.790;9.210;2022-12-18T06:27:49;56.87;;;18.87;;
6414;SDS011;3240;48.790;9.210;2022-12-18T06:30:17;40.53;;;18.70;;
6414;SDS011;3240;48.790;9.210;2022-12-18T06:32:47;47.40;;;19.17;;
6414;SDS011;3240;48.790;9.210;2022-12-18T06:35:14;48.03;;;18.13;;
6414;SDS011;3240;48.790;9.210;2022-12-18T06:37:42;49.67;;;18.23;;
6414;SDS011;3240;48.790;9.210;2022-12-18T06:40:11;52.22;;;25.02;;
6414;SDS011;3240;48.790;9.210;2022-12-18T06:42:39;48.33;;;20.30;;
6414;SDS011;3240;48.790;9.210;2022-12-18T06:45:07;45.37;;;18.17;;
6414;SDS011;3240;48.790;9.210;2022-12-18T06:47:36;44.67;;;19.07;;
6414;SDS011;3240;48.790;9.210;2022-12-18T06:50:04;49.83;;;18.27;;
6414;SDS011;3240;48.790;9.210;2022-12-18T06:52:33;42.40;;;17.10;;
6414;SDS011;3240;48.790;9.210;2022-12-18T06:55:01;43.73;;;17.60;;
6414;SDS011;3240;48.790;9.210;2022-12-18T06:57:29;50.40;;;17.47;;
6414;SDS011;3240;48.790;9.210;2022-12-18T06:59:58;51.00;;;19.40;;
6414;SDS011;3240;48.790;9.210;2022-12-18T07:02:26;50.00;;;19.03;;
6414;SDS011;3240;48.790;9.210;2022-12-18T07:04:54;52.40;;;19.73;;
6414;SDS011;3240;48.790;9.210;2022-12-18T07:07:23;60.80;;;20.13;;
6414;SDS011;3240;48.790;9.210;2022-12-18T07:09:51;63.70;;;18.47;;
6414;SDS011;3240;48.790;9.210;2022-12-18T07:12:19;51.60;;;18.20;;
6414;SDS011;3240;48.790;9.210;2022-12-18T07:14:48;45.27;;;18.70;;
6414;SDS011;3240;48.790;9.210;2022-12-18T07:17:16;45.03;;;17.10;;
6414;SDS011;3240;48.790;9.210;2022-12-18T07:19:44;53.87;;;18.57;;
6414;SDS011;3240;48.790;9.210;2022-12-18T07:22:13;50.53;;;18.30;;
6414;SDS011;3240;48.790;9.210;2022-12-18T07:24:41;47.10;;;17.40;;
6414;SDS011;3240;48.790;9.210;2022-12-18T07:27:09;51.93;;;18.33;;
6414;SDS011;3240;48.790;9.210;2022-12-18T07:29:38;53.17;;;17.70;;
6414;SDS011;3240;48.790;9.210;2022-12-18T07:32:06;50.67;;;18.30;;
6414;SDS011;3240;48.790;9.210;2022-12-18T07:34:34;59.33;;;21.40;;
6414;SDS011;3240;48.790;9.210;2022-12-18T07:37:03;59.17;;;20.33;;
6414;SDS011;3240;48.790;9.210;2022-12-18T07:39:31;46.97;;;19.67;;
6414;SDS011;3240;48.790;9.210;2022-12-18T07:41:59;48.30;;;19.13;;
6414;SDS011;3240;48.790;9.210;2022-12-18T07:44:34;55.63;;;20.27;;
6414;SDS011;3240;48.790;9.210;2022-12-18T07:47:02;54.47;;;19.17;;
6414;SDS011;3240;48.790;9.210;2022-12-18T07:49:30;49.83;;;18.93;;
6414;SDS011;3240;48.790;9.210;2022-12-18T07:51:59;48.57;;;18.47;;
6414;SDS011;3240;48.790;9.210;2022-12-18T07:54:27;59.17;;;19.50;;
6414;SDS011;3240;48.790;9.210;2022-12-18T07:56:55;52.77;;;19.30;;
6414;SDS011;3240;48.790;9.210;2022-12-18T07:59:24;48.33;;;18.03;;
6414;SDS011;3240;48.790;9.210;2022-12-18T08:01:52;58.60;;;20.87;;
6414;SDS011;3240;48.790;9.210;2022-12-18T08:04:20;59.20;;;21.90;;
6414;SDS011;3240;48.790;9.210;2022-12-18T08:06:49;49.97;;;20.73;;
6414;SDS011;3240;48.790;9.210;2022-12-18T08:09:17;51.30;;;19.73;;
6414;SDS011;3240;48.790;9.210;2022-12-18T08:11:45;47.13;;;17.67;;
6414;SDS011;3240;48.790;9.210;2022-12-18T08:14:13;68.23;;;23.40;;
6414;SDS011;3240;48.790;9.210;2022-12-18T08:16:42;49.70;;;19.83;;
6414;SDS011;3240;48.790;9.210;2022-12-18T08:19:10;60.25;;;24.75;;
6414;SDS011;3240;48.790;9.210;2022-12-18T08:21:38;56.97;;;21.37;;
6414;SDS011;3240;48.790;9.210;2022-12-18T08:24:06;56.80;;;20.80;;
6414;SDS011;3240;48.790;9.210;2022-12-18T08:26:34;46.73;;;18.50;;
6414;SDS011;3240;48.790;9.210;2022-12-18T08:29:02;53.37;;;21.33;;
6414;SDS011;3240;48.790;9.210;2022-12-18T08:31:31;59.80;;;21.00;;
6414;SDS011;3240;48.790;9.210;2022-12-18T08:33:59;54.57;;;19.33;;
6414;SDS011;3240;48.790;9.210;2022-12-18T08:36:27;61.30;;;19.20;;
6414;SDS011;3240;48.790;9.210;2022-12-18T08:38:56;57.50;;;24.33;;
6414;SDS011;3240;48.790;9.210;2022-12-18T08:41:24;63.97;;;23.53;;
6414;SDS011;3240;48.790;9.210;2022-12-18T08:43:52;53.43;;;19.60;;
6414;SDS011;3240;48.790;9.210;2022-12-18T08:46:27;46.30;;;19.97;;
6414;SDS011;3240;48.790;9.210;2022-12-18T08:48:54;61.03;;;20.77;;
6414;SDS011;3240;48.790;9.210;2022-12-18T08:51:22;49.07;;;19.80;;
6414;SDS011;3240;48.790;9.210;2022-12-18T08:53:50;54.50;;;20.57;;
6414;SDS011;3240;48.790;9.210;2022-12-18T08:56:18;53.67;;;19.80;;
6414;SDS011;3240;48.790;9.210;2022-12-18T08:58:46;56.00;;;21.33;;
6414;SDS011;3240;48.790;9.210;2022-12-18T09:01:16;55.60;;;21.30;;
6414;SDS011;3240;48.790;9.210;2022-12-18T09:03:50;50.97;;;19.80;;
6414;SDS011;3240;48.790;9.210;2022-12-18T09:06:22;54.30;;;20.20;;
6414;SDS011;3240;48.790;9.210;2022-12-18T09:08:49;60.57;;;21.03;;
6414;SDS011;3240;48.790;9.210;2022-12-18T09:11:20;54.43;;;21.50;;
6414;SDS011;3240;48.790;9.210;2022-12-18T09:13:48;60.67;;;21.50;;
6414;SDS011;3240;48.790;9.210;2022-12-18T09:16:16;59.60;;;21.90;;
6414;SDS011;3240;48.790;9.210;2022-12-18T09:18:44;58.70;;;23.50;;
6414;SDS011;3240;48.790;9.210;2022-12-18T09:21:14;60.83;;;21.73;;
6414;SDS011;3240;48.790;9.210;2022-12-18T09:23:41;51.13;;;21.27;;
6414;SDS011;3240;48.790;9.210;2022-12-18T09:26:09;59.07;;;21.83;;
6414;SDS011;3240;48.790;9.210;2022-12-18T09:28:37;50.57;;;20.13;;
6414;SDS011;3240;48.790;9.210;2022-12-18T09:31:06;58.40;;;21.63;;
6414;SDS011;3240;48.790;9.210;2022-12-18T09:33:34;70.63;;;23.03;;
6414;SDS011;3240;48.790;9.210;2022-12-18T09:36:02;51.33;;;21.50;;
6414;SDS011;3240;48.790;9.210;2022-12-18T09:38:29;58.77;;;23.47;;
6414;SDS011;3240;48.790;9.210;2022-12-18T09:40:59;68.83;;;22.20;;
6414;SDS011;3240;48.790;9.210;2022-12-18T09:43:28;60.93;;;22.47;;
6414;SDS011;3240;48.790;9.210;2022-12-18T09:45:57;58.83;;;23.00;;
6414;SDS011;3240;48.790;9.210;2022-12-18T09:48:25;70.07;;;21.80;;
6414;SDS011;3240;48.790;9.210;2022-12-18T09:50:51;63.40;;;24.07;;
6414;SDS011;3240;48.790;9.210;2022-12-18T09:53:20;56.33;;;21.60;;
6414;SDS011;3240;48.790;9.210;2022-12-18T09:55:48;55.93;;;20.63;;
6414;SDS011;3240;48.790;9.210;2022-12-18T09:58:19;56.00;;;22.40;;
6414;SDS011;3240;48.790;9.210;2022-12-18T10:00:45;57.27;;;21.97;;
6414;SDS011;3240;48.790;9.210;2022-12-18T10:03:13;54.20;;;20.07;;
6414;SDS011;3240;48.790;9.210;2022-12-18T10:05:49;60.93;;;22.43;;
6414;SDS011;3240;48.790;9.210;2022-12-18T10:10:49;58.50;;;23.23;;
6414;SDS011;3240;48.790;9.210;2022-12-18T10:13:21;57.30;;;21.30;;
6414;SDS011;3240;48.790;9.210;2022-12-18T10:15:51;57.63;;;20.43;;
6414;SDS011;3240;48.790;9.210;2022-12-18T10:18:20;69.90;;;29.63;;
6414;SDS011;3240;48.790;9.210;2022-12-18T10:20:46;56.70;;;23.37;;
6414;SDS011;3240;48.790;9.210;2022-12-18T10:23:33;54.20;;;22.33;;
6414;SDS011;3240;48.790;9.210;2022-12-18T10:26:01;60.77;;;23.90;;
6414;SDS011;3240;48.790;9.210;2022-12-18T10:28:29;55.37;;;22.77;;
6414;SDS011;3240;48.790;9.210;2022-12-18T10:30:56;64.50;;;22.40;;
6414;SDS011;3240;48.790;9.210;2022-12-18T10:33:28;64.20;;;23.90;;
6414;SDS011;3240;48.790;9.210;2022-12-18T10:35:53;60.90;;;24.83;;
6414;SDS011;3240;48.790;9.210;2022-12-18T10:38:24;67.43;;;23.13;;
6414;SDS011;3240;48.790;9.210;2022-12-18T10:40:53;64.53;;;21.93;;
6414;SDS011;3240;48.790;9.210;2022-12-18T10:43:22;58.53;;;22.90;;
6414;SDS011;3240;48.790;9.210;2022-12-18T10:48:23;64.60;;;23.50;;
6414;SDS011;3240;48.790;9.210;2022-12-18T10:50:51;58.00;;;22.87;;
6414;SDS011;3240;48.790;9.210;2022-12-18T10:53:21;61.10;;;23.87;;
6414;SDS011;3240;48.790;9.210;2022-12-18T10:55:48;66.33;;;24.33;;
6414;SDS011;3240;48.790;9.210;2022-12-18T10:58:24;52.90;;;21.53;;
6414;SDS011;3240;48.790;9.210;2022-12-18T11:03:30;49.90;;;22.73;;
6414;SDS011;3240;48.790;9.210;2022-12-18T11:06:01;55.73;;;22.17;;
6414;SDS011;3240;48.790;9.210;2022-12-18T11:08:29;59.70;;;22.93;;
6414;SDS011;3240;48.790;9.210;2022-12-18T11:10:57;55.70;;;23.60;;
6414;SDS011;3240;48.790;9.210;2022-12-18T11:13:26;51.70;;;23.13;;
6414;SDS011;3240;48.790;9.210;2022-12-18T11:15:54;62.73;;;24.43;;
6414;SDS011;3240;48.790;9.210;2022-12-18T11:18:25;57.60;;;24.07;;
6414;SDS011;3240;48.790;9.210;2022-12-18T11:20:51;52.73;;;22.43;;
6414;SDS011;3240;48.790;9.210;2022-12-18T11:23:19;54.17;;;23.60;;
6414;SDS011;3240;48.790;9.210;2022-12-18T11:25:51;52.67;;;23.27;;
6414;SDS011;3240;48.790;9.210;2022-12-18T11:31:08;51.17;;;21.47;;
6414;SDS011;3240;48.790;9.210;2022-12-18T11:33:23;52.30;;;21.13;;
6414;SDS011;3240;48.790;9.210;2022-12-18T11:35:52;57.60;;;21.03;;
6414;SDS011;3240;48.790;9.210;2022-12-18T11:38:21;50.37;;;21.77;;
6414;SDS011;3240;48.790;9.210;2022-12-18T11:41:23;51.67;;;21.80;;
6414;SDS011;3240;48.790;9.210;2022-12-18T11:43:35;54.43;;;22.23;;
6414;SDS011;3240;48.790;9.210;2022-12-18T11:46:04;60.87;;;23.03;;
6414;SDS011;3240;48.790;9.210;2022-12-18T11:48:34;51.83;;;21.30;;
6414;SDS011;3240;48.790;9.210;2022-12-18T11:51:02;58.97;;;21.97;;
6414;SDS011;3240;48.790;9.210;2022-12-18T11:53:30;46.70;;;19.17;;
6414;SDS011;3240;48.790;9.210;2022-12-18T11:56:01;50.40;;;20.63;;
6414;SDS011;3240;48.790;9.210;2022-12-18T11:58:34;51.33;;;20.43;;
6414;SDS011;3240;48.790;9.210;2022-12-18T12:01:03;45.90;;;19.70;;
6414;SDS011;3240;48.790;9.210;2022-12-18T12:03:34;49.93;;;20.23;;
6414;SDS011;3240;48.790;9.210;2022-12-18T12:06:06;55.23;;;23.10;;
6414;SDS011;3240;48.790;9.210;2022-12-18T12:08:40;53.60;;;22.33;;
6414;SDS011;3240;48.790;9.210;2022-12-18T12:13:43;50.10;;;22.10;;
6414;SDS011;3240;48.790;9.210;2022-12-18T12:16:16;53.90;;;20.70;;
6414;SDS011;3240;48.790;9.210;2022-12-18T12:18:49;53.70;;;20.57;;
6414;SDS011;3240;48.790;9.210;2022-12-18T12:21:19;45.40;;;19.80;;
6414;SDS011;3240;48.790;9.210;2022-12-18T12:23:49;56.53;;;22.60;;
6414;SDS011;3240;48.790;9.210;2022-12-18T12:26:17;45.10;;;19.27;;
6414;SDS011;3240;48.790;9.210;2022-12-18T12:28:47;58.37;;;20.67;;
6414;SDS011;3240;48.790;9.210;2022-12-18T12:33:51;49.20;;;20.50;;
6414;SDS011;3240;48.790;9.210;2022-12-18T12:38:53;59.80;;;23.90;;
6414;SDS011;3240;48.790;9.210;2022-12-18T12:41:21;56.37;;;21.00;;
6414;SDS011;3240;48.790;9.210;2022-12-18T12:43:54;43.60;;;19.70;;
6414;SDS011;3240;48.790;9.210;2022-12-18T12:46:22;60.07;;;22.73;;
6414;SDS011;3240;48.790;9.210;2022-12-18T12:48:51;45.50;;;19.40;;
6414;SDS011;3240;48.790;9.210;2022-12-18T12:51:21;45.30;;;18.87;;
6414;SDS011;3240;48.790;9.210;2022-12-18T12:53:48;43.83;;;18.77;;
6414;SDS011;3240;48.790;9.210;2022-12-18T12:56:17;43.07;;;16.77;;
6414;SDS011;3240;48.790;9.210;2022-12-18T12:58:55;38.57;;;17.30;;
6414;SDS011;3240;48.790;9.210;2022-12-18T13:01:28;46.23;;;18.80;;
6414;SDS011;3240;48.790;9.210;2022-12-18T13:03:58;43.50;;;17.43;;
6414;SDS011;3240;48.790;9.210;2022-12-18T13:06:29;43.60;;;18.53;;
6414;SDS011;3240;48.790;9.210;2022-12-18T13:08:57;51.17;;;21.70;;
6414;SDS011;3240;48.790;9.210;2022-12-18T13:11:29;56.13;;;22.80;;
6414;SDS011;3240;48.790;9.210;2022-12-18T13:14:02;52.13;;;21.90;;
6414;SDS011;3240;48.790;9.210;2022-12-18T13:16:30;48.53;;;22.07;;
6414;SDS011;3240;48.790;9.210;2022-12-18T13:18:58;54.40;;;22.97;;
6414;SDS011;3240;48.790;9.210;2022-12-18T13:21:28;47.63;;;20.90;;
6414;SDS011;3240;48.790;9.210;2022-12-18T13:23:55;61.83;;;22.80;;
6414;SDS011;3240;48.790;9.210;2022-12-18T13:26:30;49.67;;;21.17;;
6414;SDS011;3240;48.790;9.210;2022-12-18T13:28:59;51.80;;;20.10;;
6414;SDS011;3240;48.790;9.210;2022-12-18T13:34:18;48.33;;;21.40;;
6414;SDS011;3240;48.790;9.210;2022-12-18T13:36:45;52.50;;;20.67;;
6414;SDS011;3240;48.790;9.210;2022-12-18T13:44:32;47.67;;;19.20;;
6414;SDS011;3240;48.790;9.210;2022-12-18T13:46:59;52.03;;;20.83;;
6414;SDS011;3240;48.790;9.210;2022-12-18T13:49:30;52.33;;;20.87;;
6414;SDS011;3240;48.790;9.210;2022-12-18T13:51:55;52.00;;;20.13;;
6414;SDS011;3240;48.790;9.210;2022-12-18T13:54:33;54.53;;;23.92;;
6414;SDS011;3240;48.790;9.210;2022-12-18T13:57:02;61.27;;;24.00;;
6414;SDS011;3240;48.790;9.210;2022-12-18T13:59:33;50.87;;;21.17;;
6414;SDS011;3240;48.790;9.210;2022-12-18T14:02:07;51.77;;;21.20;;
6414;SDS011;3240;48.790;9.210;2022-12-18T14:04:30;60.03;;;21.20;;
6414;SDS011;3240;48.790;9.210;2022-12-18T14:07:03;58.30;;;23.70;;
6414;SDS011;3240;48.790;9.210;2022-12-18T14:09:31;51.33;;;21.50;;
6414;SDS011;3240;48.790;9.210;2022-12-18T14:11:58;58.93;;;24.47;;
6414;SDS011;3240;48.790;9.210;2022-12-18T14:14:32;57.50;;;24.03;;
6414;SDS011;3240;48.790;9.210;2022-12-18T14:17:01;53.80;;;22.27;;
6414;SDS011;3240;48.790;9.210;2022-12-18T14:19:29;52.53;;;22.60;;
6414;SDS011;3240;48.790;9.210;2022-12-18T14:21:57;51.10;;;22.20;;
6414;SDS011;3240;48.790;9.210;2022-12-18T14:24:26;59.07;;;25.20;;
6414;SDS011;3240;48.790;9.210;2022-12-18T14:26:54;52.73;;;23.37;;
6414;SDS011;3240;48.790;9.210;2022-12-18T14:29:24;59.20;;;23.33;;
6414;SDS011;3240;48.790;9.210;2022-12-18T14:34:26;51.70;;;23.20;;
6414;SDS011;3240;48.790;9.210;2022-12-18T14:36:54;51.70;;;23.03;;
6414;SDS011;3240;48.790;9.210;2022-12-18T14:39:22;55.07;;;23.57;;
6414;SDS011;3240;48.790;9.210;2022-12-18T14:41:51;52.20;;;23.80;;
6414;SDS011;3240;48.790;9.210;2022-12-18T14:44:20;57.87;;;22.63;;
6414;SDS011;3240;48.790;9.210;2022-12-18T14:46:49;59.43;;;25.37;;
6414;SDS011;3240;48.790;9.210;2022-12-18T14:49:21;59.10;;;23.80;;
6414;SDS011;3240;48.790;9.210;2022-12-18T14:51:48;57.60;;;24.40;;
6414;SDS011;3240;48.790;9.210;2022-12-18T14:54:17;63.83;;;25.40;;
6414;SDS011;3240;48.790;9.210;2022-12-18T14:56:45;69.33;;;25.13;;
6414;SDS011;3240;48.790;9.210;2022-12-18T14:59:13;59.33;;;22.87;;
6414;SDS011;3240;48.790;9.210;2022-12-18T15:01:45;56.80;;;24.43;;
6414;SDS011;3240;48.790;9.210;2022-12-18T15:06:46;55.23;;;22.67;;
6414;SDS011;3240;48.790;9.210;2022-12-18T15:09:21;64.03;;;25.10;;
6414;SDS011;3240;48.790;9.210;2022-12-18T15:11:47;67.22;;;30.17;;
6414;SDS011;3240;48.790;9.210;2022-12-18T15:14:23;67.80;;;25.63;;
6414;SDS011;3240;48.790;9.210;2022-12-18T15:16:51;63.10;;;23.27;;
6414;SDS011;3240;48.790;9.210;2022-12-18T15:19:19;56.73;;;22.83;;
6414;SDS011;3240;48.790;9.210;2022-12-18T15:21:47;60.30;;;22.63;;
6414;SDS011;3240;48.790;9.210;2022-12-18T15:24:17;61.13;;;22.40;;
6414;SDS011;3240;48.790;9.210;2022-12-18T15:26:45;63.70;;;23.87;;
6414;SDS011;3240;48.790;9.210;2022-12-18T15:29:17;61.73;;;22.63;;
6414;SDS011;3240;48.790;9.210;2022-12-18T15:31:43;62.50;;;28.77;;
6414;SDS011;3240;48.790;9.210;2022-12-18T15:34:13;63.90;;;23.10;;